Terminal Aerodrome Forecast
Issued by NWS Atlanta, GA

Home | Current Version | Previous Version | Text Only | Print | Product List | Glossary On
Versions: 1 2 3 4 5 6 7 8 9 10 11 12 13 14 15 16 17 18 19 20 21 22 23 24 25 26 27 28 29 30 31 32 33 34 35 36 37 38 39 40
000
FTUS42 KFFC 182156 AAB
TAFATL
TAF AMD
KATL 182156Z 1822/1924 33006KT P6SM BKN045
     FM190100 31005KT P6SM SCT045 BKN150
     FM190900 33004KT P6SM SCT150
     FM191600 01005KT P6SM BKN150
     FM192100 02005KT P6SM OVC100=

USA.gov is the U.S. government's official web portal to all federal, state and local government web resources and services.